createdAt,value
2022-11-13T00:02:34.699Z,83.44
2022-11-13T00:05:17.407Z,83.60
2022-11-13T00:07:59.715Z,83.55
2022-11-13T00:10:41.967Z,83.75
2022-11-13T00:13:30.040Z,83.81
2022-11-13T00:16:15.526Z,83.78
2022-11-13T00:18:58.120Z,83.79
2022-11-13T00:21:40.415Z,83.81
2022-11-13T00:24:22.658Z,83.65
2022-11-13T00:27:05.092Z,83.33
2022-11-13T00:29:47.315Z,83.66
2022-11-13T00:32:29.534Z,83.34
2022-11-13T00:35:11.823Z,83.47
2022-11-13T00:37:55.017Z,83.62
2022-11-13T00:40:37.055Z,83.62
2022-11-13T00:43:19.304Z,83.27
2022-11-13T00:46:01.720Z,83.35
2022-11-13T00:48:44.481Z,82.81
2022-11-13T00:51:26.874Z,82.97
2022-11-13T00:54:09.280Z,83.07
2022-11-13T00:56:51.528Z,82.69
2022-11-13T00:59:33.664Z,82.99
2022-11-13T01:02:16.006Z,83.01
2022-11-13T01:04:58.475Z,83.06
2022-11-13T01:07:40.616Z,82.52
2022-11-13T01:10:23.110Z,82.53
2022-11-13T01:13:05.250Z,82.97
2022-11-13T01:15:47.605Z,82.53
2022-11-13T01:18:29.919Z,82.78
2022-11-13T01:21:17.771Z,82.85
2022-11-13T01:24:01.316Z,83.04
2022-11-13T01:26:43.513Z,82.98
2022-11-13T01:29:25.550Z,83.01
2022-11-13T01:32:08.415Z,83.17
2022-11-13T01:34:50.884Z,82.60
2022-11-13T01:37:32.986Z,82.57
2022-11-13T01:40:15.696Z,82.61
2022-11-13T01:42:57.900Z,82.45
2022-11-13T01:45:58.807Z,82.65
2022-11-13T01:48:46.770Z,82.25
2022-11-13T01:51:35.255Z,81.86
2022-11-13T01:54:22.647Z,81.76
2022-11-13T01:57:05.974Z,81.68
2022-11-13T01:59:55.146Z,81.83
2022-11-13T02:02:37.985Z,81.64
2022-11-13T02:05:20.066Z,81.42
2022-11-13T02:08:03.363Z,81.16
2022-11-13T02:10:45.871Z,80.95
2022-11-13T02:13:28.112Z,80.89
2022-11-13T02:16:11.693Z,81.10
2022-11-13T02:18:54.064Z,81.38
2022-11-13T02:21:58.932Z,81.56
2022-11-13T02:24:45.580Z,81.76
2022-11-13T02:27:45.850Z,82.07
2022-11-13T02:30:31.278Z,82.35
2022-11-13T02:33:28.031Z,82.55
2022-11-13T02:36:11.921Z,82.57
2022-11-13T02:38:55.736Z,82.22
2022-11-13T02:41:38.573Z,82.43
2022-11-13T02:44:20.430Z,82.60
2022-11-13T02:47:02.942Z,82.92
2022-11-13T02:49:45.222Z,82.99
2022-11-13T02:52:27.450Z,82.87
2022-11-13T02:55:09.949Z,83.23
2022-11-13T02:57:52.037Z,83.43
2022-11-13T03:00:34.262Z,83.50
2022-11-13T03:03:34.279Z,83.46
2022-11-13T03:06:19.387Z,83.24
2022-11-13T03:09:01.826Z,83.36
2022-11-13T03:11:44.891Z,82.98
2022-11-13T03:14:26.726Z,83.24
2022-11-13T03:17:09.311Z,82.78
2022-11-13T03:19:51.577Z,82.86
2022-11-13T03:22:33.640Z,82.82
2022-11-13T03:25:16.201Z,82.92
2022-11-13T03:27:58.608Z,83.38
2022-11-13T03:30:40.729Z,83.34
2022-11-13T03:33:23.150Z,83.63
2022-11-13T03:36:06.141Z,83.60
2022-11-13T03:38:48.280Z,83.79
2022-11-13T03:41:30.342Z,83.98
2022-11-13T03:44:12.966Z,83.85
2022-11-13T03:46:55.349Z,83.67
2022-11-13T03:49:37.287Z,83.70
2022-11-13T03:52:19.651Z,84.07
2022-11-13T03:55:02.034Z,83.95
2022-11-13T03:57:44.381Z,84.37
2022-11-13T04:00:28.850Z,84.24
2022-11-13T04:03:12.859Z,84.27
2022-11-13T04:05:58.765Z,84.51
2022-11-13T04:08:41.191Z,84.54
2022-11-13T04:11:23.342Z,84.09
2022-11-13T04:14:05.858Z,83.97
2022-11-13T04:16:48.138Z,84.14
2022-11-13T04:19:30.462Z,83.85
2022-11-13T04:22:13.208Z,84.43
2022-11-13T04:24:55.661Z,84.22
2022-11-13T04:27:37.706Z,83.98
2022-11-13T04:30:20.481Z,84.04
2022-11-13T04:33:03.147Z,83.94
2022-11-13T04:35:46.086Z,83.84
2022-11-13T04:38:28.809Z,83.71
2022-11-13T04:41:33.387Z,83.69
2022-11-13T04:44:15.676Z,83.73
2022-11-13T04:46:58.083Z,83.61
2022-11-13T04:49:40.110Z,83.89
2022-11-13T04:52:21.953Z,83.81
2022-11-13T04:55:05.078Z,83.56
2022-11-13T04:57:47.464Z,84.00
2022-11-13T05:00:29.435Z,83.74
2022-11-13T05:03:11.733Z,84.10
2022-11-13T05:05:54.205Z,84.09
2022-11-13T05:08:37.392Z,84.28
2022-11-13T05:11:19.867Z,84.34
2022-11-13T05:14:03.582Z,84.33
2022-11-13T05:16:46.440Z,84.43
2022-11-13T05:19:28.592Z,84.50
2022-11-13T05:22:11.023Z,84.04
2022-11-13T05:24:53.296Z,84.81
2022-11-13T05:27:35.454Z,84.48
2022-11-13T05:30:17.373Z,84.31
2022-11-13T05:32:59.722Z,84.36
2022-11-13T05:35:41.958Z,84.08
2022-11-13T05:38:24.164Z,84.03
2022-11-13T05:41:07.833Z,83.65
2022-11-13T05:43:55.112Z,83.92
2022-11-13T05:46:40.482Z,84.00
2022-11-13T05:49:22.560Z,84.21
2022-11-13T05:52:04.598Z,84.04
2022-11-13T05:54:47.550Z,84.24
2022-11-13T05:57:29.569Z,84.57
2022-11-13T06:00:12.520Z,84.54
2022-11-13T06:02:54.799Z,84.58
2022-11-13T06:05:36.942Z,84.94
2022-11-13T06:08:19.263Z,84.91
2022-11-13T06:11:04.364Z,85.09
2022-11-13T06:13:46.922Z,84.88
2022-11-13T06:16:34.460Z,84.85
2022-11-13T06:19:16.700Z,84.37
2022-11-13T06:21:59.197Z,85.00
2022-11-13T06:24:41.270Z,85.28
2022-11-13T06:27:23.551Z,85.04
2022-11-13T06:30:06.243Z,85.68
2022-11-13T06:32:54.001Z,85.31
2022-11-13T06:35:36.132Z,85.61
2022-11-13T06:38:18.449Z,85.81
2022-11-13T06:41:01.812Z,85.70
2022-11-13T06:43:45.123Z,85.61
2022-11-13T06:46:29.231Z,85.78
2022-11-13T06:49:11.387Z,86.00
2022-11-13T06:51:53.687Z,86.02
2022-11-13T06:54:35.832Z,85.41
2022-11-13T06:57:18.101Z,85.28
2022-11-13T07:00:00.196Z,85.69
2022-11-13T07:02:42.293Z,86.02
2022-11-13T07:05:24.738Z,85.58
2022-11-13T07:08:06.987Z,85.28
2022-11-13T07:10:55.746Z,85.69
2022-11-13T07:13:39.012Z,85.14
2022-11-13T07:16:20.919Z,84.90
2022-11-13T07:19:03.513Z,84.86
2022-11-13T07:21:45.560Z,84.82
2022-11-13T07:24:27.942Z,84.67
2022-11-13T07:27:10.913Z,84.31
2022-11-13T07:29:53.091Z,84.54
2022-11-13T07:32:35.257Z,83.74
2022-11-13T07:35:18.254Z,83.65
2022-11-13T07:38:00.545Z,83.72
2022-11-13T07:40:42.783Z,83.76
2022-11-13T07:43:25.703Z,83.73
2022-11-13T07:46:07.937Z,83.76
2022-11-13T07:48:50.336Z,83.57
2022-11-13T07:51:32.462Z,83.74
2022-11-13T07:54:14.915Z,83.72
2022-11-13T07:56:57.182Z,83.55
2022-11-13T07:59:39.507Z,83.03
2022-11-13T08:02:26.294Z,83.48
2022-11-13T08:05:09.334Z,83.25
2022-11-13T08:07:52.905Z,82.70
2022-11-13T08:10:36.348Z,82.14
2022-11-13T08:13:18.514Z,82.66
2022-11-13T08:16:02.969Z,81.85
2022-11-13T08:18:45.208Z,81.76
2022-11-13T08:21:27.733Z,81.79
2022-11-13T08:24:10.189Z,81.94
2022-11-13T08:26:52.248Z,81.94
2022-11-13T08:29:37.403Z,81.28
2022-11-13T08:32:20.467Z,80.71
2022-11-13T08:35:03.459Z,81.09
2022-11-13T08:37:45.657Z,81.13
2022-11-13T08:40:27.678Z,80.94
2022-11-13T08:43:09.665Z,81.04
2022-11-13T08:45:53.383Z,80.75
2022-11-13T08:48:35.715Z,80.33
2022-11-13T08:51:18.465Z,80.53
2022-11-13T08:54:00.918Z,80.71
2022-11-13T08:56:43.048Z,80.84
2022-11-13T08:59:27.245Z,80.44
2022-11-13T09:02:14.305Z,79.73
2022-11-13T09:04:56.295Z,80.06
2022-11-13T09:07:38.392Z,80.25
2022-11-13T09:10:20.786Z,80.58
2022-11-13T09:13:05.441Z,80.98
2022-11-13T09:15:47.448Z,80.82
2022-11-13T09:18:30.541Z,80.01
2022-11-13T09:21:13.193Z,79.39
2022-11-13T09:23:55.802Z,79.76
2022-11-13T09:26:37.678Z,80.15
2022-11-13T09:29:21.056Z,80.03
2022-11-13T09:32:03.565Z,79.72
2022-11-13T09:34:45.594Z,79.49
2022-11-13T09:37:27.819Z,78.74
2022-11-13T09:40:23.151Z,78.62
2022-11-13T09:43:15.709Z,78.83
2022-11-13T09:46:03.474Z,79.15
2022-11-13T09:48:57.426Z,78.87
2022-11-13T09:51:39.738Z,77.94
2022-11-13T09:54:22.563Z,77.45
2022-11-13T09:57:15.628Z,77.07
2022-11-13T10:00:15.625Z,77.26
2022-11-13T10:03:39.562Z,77.45
2022-11-13T10:06:40.899Z,77.48
2022-11-13T10:09:47.145Z,77.40
2022-11-13T10:12:32.479Z,77.75
2022-11-13T10:15:17.383Z,77.91
2022-11-13T10:18:06.827Z,77.39
2022-11-13T10:20:55.806Z,76.88
2022-11-13T10:23:39.017Z,77.21
2022-11-13T10:26:24.732Z,76.86
2022-11-13T10:29:18.429Z,77.06
2022-11-13T10:32:15.848Z,77.20
2022-11-13T10:35:20.711Z,77.14
2022-11-13T10:38:08.197Z,76.52
2022-11-13T10:40:51.393Z,76.16
2022-11-13T10:43:33.994Z,75.54
2022-11-13T10:46:20.953Z,75.75
2022-11-13T10:49:20.757Z,75.79
2022-11-13T10:52:05.796Z,76.80
2022-11-13T10:55:14.599Z,76.90
2022-11-13T10:58:00.538Z,76.36
2022-11-13T11:00:47.455Z,75.78
2022-11-13T11:03:29.498Z,75.65
2022-11-13T11:06:11.978Z,75.68
2022-11-13T11:08:54.135Z,75.45
2022-11-13T11:11:51.739Z,75.07
2022-11-13T11:14:41.370Z,74.81
2022-11-13T11:17:30.016Z,73.66
2022-11-13T11:20:42.943Z,73.21
2022-11-13T11:23:41.586Z,72.84
2022-11-13T11:26:31.529Z,72.35
2022-11-13T11:29:25.233Z,72.03
2022-11-13T11:32:16.809Z,71.47
2022-11-13T11:35:08.397Z,71.60
2022-11-13T11:37:55.593Z,73.34
2022-11-13T11:40:45.584Z,73.35
2022-11-13T11:43:39.727Z,72.71
2022-11-13T11:46:28.702Z,72.48
2022-11-13T11:49:15.094Z,72.39
2022-11-13T11:52:07.781Z,71.89
2022-11-13T11:55:12.773Z,72.28
2022-11-13T11:58:05.744Z,73.80
2022-11-13T12:00:55.158Z,73.85
2022-11-13T12:04:05.475Z,73.79
2022-11-13T12:07:05.008Z,73.84
2022-11-13T12:09:48.140Z,73.84
2022-11-13T12:12:47.130Z,73.97
2022-11-13T12:15:44.948Z,74.39
2022-11-13T12:18:40.692Z,74.70
2022-11-13T12:21:30.463Z,73.88
2022-11-13T12:24:16.993Z,73.13
2022-11-13T12:27:17.025Z,70.78
2022-11-13T12:29:59.158Z,68.76
2022-11-13T12:32:56.822Z,67.21
2022-11-13T12:35:40.259Z,66.51
2022-11-13T12:38:22.399Z,66.39
2022-11-13T12:41:22.008Z,66.37
2022-11-13T12:44:23.175Z,66.30
2022-11-13T12:47:08.715Z,65.61
2022-11-13T12:50:20.534Z,63.86
2022-11-13T12:53:08.665Z,62.10
2022-11-13T12:56:01.478Z,60.88
2022-11-13T12:59:23.631Z,59.86
2022-11-13T13:02:16.122Z,58.88
2022-11-13T13:04:59.490Z,58.12
2022-11-13T13:07:48.595Z,56.48
2022-11-13T13:10:47.084Z,55.13
2022-11-13T13:13:45.051Z,54.53
2022-11-13T13:16:29.788Z,53.86
2022-11-13T13:19:29.022Z,53.21
2022-11-13T13:22:24.666Z,53.11
2022-11-13T13:25:24.241Z,53.38
2022-11-13T13:28:07.592Z,53.28
2022-11-13T13:30:52.943Z,53.37
2022-11-13T13:34:00.429Z,53.78
2022-11-13T13:36:54.001Z,52.71
2022-11-13T13:39:59.212Z,52.45
2022-11-13T13:43:04.211Z,52.26
2022-11-13T13:45:52.932Z,51.51
2022-11-13T13:48:40.146Z,51.69
2022-11-13T13:51:47.862Z,52.26
2022-11-13T13:54:32.940Z,53.11
2022-11-13T13:57:17.036Z,53.82
2022-11-13T13:59:59.601Z,54.78
2022-11-13T14:02:47.555Z,55.92
2022-11-13T14:05:35.421Z,57.13
2022-11-13T14:08:22.299Z,58.48
2022-11-13T14:11:18.599Z,59.89
2022-11-13T14:14:16.025Z,61.43
2022-11-13T14:17:01.818Z,62.61
2022-11-13T14:19:51.659Z,63.67
2022-11-13T14:22:34.225Z,64.48
2022-11-13T14:25:28.101Z,64.95
2022-11-13T14:28:27.700Z,65.57
2022-11-13T14:31:13.374Z,66.29
2022-11-13T14:33:56.276Z,67.06
2022-11-13T14:36:39.691Z,68.01
2022-11-13T14:39:28.454Z,68.38
2022-11-13T14:42:18.047Z,68.98
2022-11-13T14:45:20.860Z,69.80
2022-11-13T14:48:22.449Z,70.50
2022-11-13T14:51:07.188Z,70.76
2022-11-13T14:53:59.024Z,70.84
2022-11-13T14:56:43.077Z,70.91
2022-11-13T14:59:28.062Z,71.81
2022-11-13T15:02:12.947Z,72.44
2022-11-13T15:04:55.362Z,72.65
2022-11-13T15:07:42.283Z,73.36
2022-11-13T15:10:27.400Z,73.90
2022-11-13T15:13:12.986Z,74.41
2022-11-13T15:15:55.393Z,75.01
2022-11-13T15:18:38.282Z,75.86
2022-11-13T15:21:20.621Z,76.16
2022-11-13T15:24:02.932Z,76.66
2022-11-13T15:26:45.036Z,76.89
2022-11-13T15:29:27.575Z,77.46
2022-11-13T15:32:13.101Z,78.00
2022-11-13T15:34:55.125Z,78.16
2022-11-13T15:37:37.337Z,78.36
2022-11-13T15:40:19.812Z,78.46
2022-11-13T15:43:02.610Z,78.85
2022-11-13T15:45:44.945Z,78.92
2022-11-13T15:48:27.293Z,79.40
2022-11-13T15:51:14.980Z,79.53
2022-11-13T15:54:02.831Z,79.98
2022-11-13T15:56:46.952Z,80.45
2022-11-13T15:59:29.103Z,80.66
2022-11-13T16:02:11.489Z,81.32
2022-11-13T16:04:56.939Z,81.65
2022-11-13T16:07:42.146Z,81.47
2022-11-13T16:10:25.978Z,81.67
2022-11-13T16:13:08.436Z,82.18
2022-11-13T16:15:50.714Z,82.72
2022-11-13T16:18:32.922Z,83.01
2022-11-13T16:21:17.036Z,83.37
2022-11-13T16:23:59.546Z,83.20
2022-11-13T16:26:47.808Z,83.89
2022-11-13T16:29:45.874Z,84.08
2022-11-13T16:32:43.544Z,83.89
2022-11-13T16:35:25.767Z,83.53
2022-11-13T16:38:13.207Z,84.01
2022-11-13T16:40:55.630Z,84.45
2022-11-13T16:43:38.279Z,84.44
2022-11-13T16:46:29.465Z,84.63
2022-11-13T16:49:18.856Z,84.72
2022-11-13T16:52:00.970Z,84.62
2022-11-13T16:54:43.450Z,84.17
2022-11-13T16:57:25.744Z,84.33
2022-11-13T17:00:12.189Z,84.17
2022-11-13T17:02:54.348Z,83.93
2022-11-13T17:05:38.671Z,83.97
2022-11-13T17:08:22.102Z,83.86
2022-11-13T17:11:04.575Z,83.87
2022-11-13T17:13:51.274Z,83.81
2022-11-13T17:16:33.462Z,83.68
2022-11-13T17:19:16.327Z,83.61
2022-11-13T17:21:59.359Z,83.38
2022-11-13T17:24:41.778Z,83.39
2022-11-13T17:27:23.968Z,83.28
2022-11-13T17:30:06.967Z,83.52
2022-11-13T17:32:48.890Z,83.39
2022-11-13T17:35:31.234Z,83.25
2022-11-13T17:38:14.093Z,83.49
2022-11-13T17:40:56.291Z,83.46
2022-11-13T17:43:40.445Z,83.45
2022-11-13T17:46:22.518Z,83.35
2022-11-13T17:49:05.456Z,83.11
2022-11-13T17:51:47.559Z,82.88
2022-11-13T17:54:30.088Z,83.02
2022-11-13T17:57:13.118Z,83.00
2022-11-13T17:59:55.052Z,82.98
2022-11-13T18:02:37.426Z,83.50
2022-11-13T18:05:19.745Z,83.03
2022-11-13T18:08:02.981Z,83.33
2022-11-13T18:10:45.298Z,83.37
2022-11-13T18:13:28.002Z,83.22
2022-11-13T18:16:14.761Z,83.45
2022-11-13T18:18:58.380Z,83.14
2022-11-13T18:21:41.977Z,83.31
2022-11-13T18:24:24.569Z,83.15
2022-11-13T18:27:07.470Z,83.24
2022-11-13T18:29:49.535Z,82.88
2022-11-13T18:32:34.949Z,83.12
2022-11-13T18:35:17.787Z,82.99
2022-11-13T18:38:00.019Z,82.95
2022-11-13T18:40:42.419Z,83.53
2022-11-13T18:43:24.833Z,83.88
2022-11-13T18:46:08.084Z,83.50
2022-11-13T18:48:50.466Z,83.33
2022-11-13T18:51:36.682Z,83.02
2022-11-13T18:54:19.454Z,83.33
2022-11-13T18:57:01.870Z,83.17
2022-11-13T18:59:44.132Z,83.35
2022-11-13T19:02:27.819Z,83.26
2022-11-13T19:05:09.890Z,83.53
2022-11-13T19:07:52.134Z,83.75
2022-11-13T19:10:34.844Z,83.84
2022-11-13T19:13:17.450Z,84.33
2022-11-13T19:16:07.985Z,84.02
2022-11-13T19:18:53.654Z,83.86
2022-11-13T19:21:36.752Z,84.42
2022-11-13T19:24:19.072Z,84.16
2022-11-13T19:27:00.948Z,84.46
2022-11-13T19:29:43.434Z,84.23
2022-11-13T19:32:25.699Z,84.49
2022-11-13T19:35:08.769Z,84.23
2022-11-13T19:37:57.618Z,84.39
2022-11-13T19:40:39.599Z,84.33
2022-11-13T19:43:22.102Z,84.17
2022-11-13T19:46:05.783Z,84.65
2022-11-13T19:48:49.312Z,84.74
2022-11-13T19:51:31.584Z,83.94
2022-11-13T19:54:13.950Z,83.71
2022-11-13T19:56:56.036Z,83.69
2022-11-13T19:59:39.665Z,83.72
2022-11-13T20:02:21.944Z,83.72
2022-11-13T20:05:04.164Z,83.64
2022-11-13T20:07:46.294Z,83.41
2022-11-13T20:10:28.743Z,83.30
2022-11-13T20:13:11.496Z,83.19
2022-11-13T20:15:54.801Z,83.13
2022-11-13T20:18:38.113Z,83.44
2022-11-13T20:21:25.254Z,83.34
2022-11-13T20:24:09.815Z,83.69
2022-11-13T20:26:52.281Z,83.61
2022-11-13T20:29:34.527Z,83.58
2022-11-13T20:32:16.892Z,83.48
2022-11-13T20:34:59.081Z,83.57
2022-11-13T20:37:41.485Z,83.66
2022-11-13T20:40:23.762Z,83.65
2022-11-13T20:43:06.078Z,83.44
2022-11-13T20:45:48.240Z,83.33
2022-11-13T20:48:31.151Z,83.69
2022-11-13T20:51:16.474Z,83.78
2022-11-13T20:53:59.000Z,83.56
2022-11-13T20:56:41.018Z,83.78
2022-11-13T20:59:23.678Z,83.68
2022-11-13T21:02:05.773Z,84.04
2022-11-13T21:04:47.945Z,84.09
2022-11-13T21:07:30.440Z,83.91
2022-11-13T21:10:12.730Z,83.88
2022-11-13T21:12:54.915Z,83.69
2022-11-13T21:15:38.255Z,83.92
2022-11-13T21:18:20.907Z,83.90
2022-11-13T21:21:19.502Z,83.78
2022-11-13T21:24:01.536Z,83.90
2022-11-13T21:26:43.726Z,83.51
2022-11-13T21:29:25.675Z,83.71
2022-11-13T21:32:07.978Z,83.40
2022-11-13T21:34:50.263Z,83.42
2022-11-13T21:37:33.951Z,83.03
2022-11-13T21:40:16.580Z,83.23
2022-11-13T21:42:58.579Z,82.97
2022-11-13T21:45:40.427Z,83.30
2022-11-13T21:48:22.968Z,83.12
2022-11-13T21:51:05.086Z,83.29
2022-11-13T21:53:47.290Z,83.25
2022-11-13T21:56:31.025Z,83.54
2022-11-13T21:59:13.129Z,83.81
2022-11-13T22:01:55.440Z,83.37
2022-11-13T22:04:37.615Z,83.44
2022-11-13T22:07:20.125Z,83.56
2022-11-13T22:10:07.919Z,83.54
2022-11-13T22:12:50.698Z,83.90
2022-11-13T22:15:33.210Z,83.91
2022-11-13T22:18:15.457Z,84.45
2022-11-13T22:21:07.017Z,84.62
2022-11-13T22:23:49.206Z,84.68
2022-11-13T22:26:31.937Z,84.82
2022-11-13T22:29:14.948Z,84.89
2022-11-13T22:31:57.084Z,84.80
2022-11-13T22:34:39.256Z,85.01
2022-11-13T22:37:22.083Z,84.97
2022-11-13T22:40:04.841Z,85.03
2022-11-13T22:42:46.810Z,84.94
2022-11-13T22:45:29.224Z,85.12
2022-11-13T22:48:12.298Z,85.15
2022-11-13T22:50:54.229Z,85.60
2022-11-13T22:53:37.137Z,85.63
2022-11-13T22:56:21.183Z,85.30
2022-11-13T22:59:05.773Z,85.43
2022-11-13T23:01:48.051Z,85.54
2022-11-13T23:04:30.495Z,85.78
2022-11-13T23:07:13.014Z,85.85
2022-11-13T23:09:55.370Z,85.89
2022-11-13T23:12:38.167Z,85.88
2022-11-13T23:15:20.266Z,86.05
2022-11-13T23:18:07.129Z,86.10
2022-11-13T23:20:50.878Z,86.15
2022-11-13T23:23:33.582Z,86.29
2022-11-13T23:26:17.250Z,86.53
2022-11-13T23:28:59.219Z,86.49
2022-11-13T23:31:41.514Z,86.53
2022-11-13T23:34:45.297Z,86.16
2022-11-13T23:37:26.909Z,86.12
2022-11-13T23:40:09.734Z,86.39
2022-11-13T23:42:55.876Z,86.33
2022-11-13T23:45:38.673Z,85.86
2022-11-13T23:48:21.564Z,85.94
2022-11-13T23:51:03.945Z,86.04
2022-11-13T23:53:46.146Z,86.34
2022-11-13T23:56:28.574Z,85.87
2022-11-13T23:59:10.697Z,85.70
